sensor_id;sensor_type;location;lat;lon;timestamp;temperature;humidity
1461;DHT22;724;49.910;12.530;2022-11-11T00:00:59;4.70;99.90
1461;DHT22;724;49.910;12.530;2022-11-11T00:03:26;4.60;99.90
1461;DHT22;724;49.910;12.530;2022-11-11T00:05:53;4.60;99.90
1461;DHT22;724;49.910;12.530;2022-11-11T00:08:20;4.60;99.90
1461;DHT22;724;49.910;12.530;2022-11-11T00:10:48;4.60;99.90
1461;DHT22;724;49.910;12.530;2022-11-11T00:13:15;4.80;99.90
1461;DHT22;724;49.910;12.530;2022-11-11T00:15:41;4.80;99.90
1461;DHT22;724;49.910;12.530;2022-11-11T00:18:10;4.70;99.90
1461;DHT22;724;49.910;12.530;2022-11-11T00:20:57;4.70;99.90
1461;DHT22;724;49.910;12.530;2022-11-11T00:23:42;4.90;99.90
1461;DHT22;724;49.910;12.530;2022-11-11T00:26:27;4.80;99.90
1461;DHT22;724;49.910;12.530;2022-11-11T00:28:54;4.90;99.90
1461;DHT22;724;49.910;12.530;2022-11-11T00:31:21;4.90;99.90
1461;DHT22;724;49.910;12.530;2022-11-11T00:33:48;5.10;99.90
1461;DHT22;724;49.910;12.530;2022-11-11T00:36:14;5.00;99.90
1461;DHT22;724;49.910;12.530;2022-11-11T00:38:41;5.00;99.90
1461;DHT22;724;49.910;12.530;2022-11-11T00:41:16;4.90;99.90
1461;DHT22;724;49.910;12.530;2022-11-11T00:43:45;4.90;99.90
1461;DHT22;724;49.910;12.530;2022-11-11T00:46:13;4.90;99.90
1461;DHT22;724;49.910;12.530;2022-11-11T00:48:58;4.80;99.90
1461;DHT22;724;49.910;12.530;2022-11-11T00:51:42;4.80;99.90
1461;DHT22;724;49.910;12.530;2022-11-11T00:54:09;4.60;99.90
1461;DHT22;724;49.910;12.530;2022-11-11T00:56:37;4.60;99.90
1461;DHT22;724;49.910;12.530;2022-11-11T00:59:06;4.60;99.90
1461;DHT22;724;49.910;12.530;2022-11-11T01:01:34;4.50;99.90
1461;DHT22;724;49.910;12.530;2022-11-11T01:04:01;4.40;99.90
1461;DHT22;724;49.910;12.530;2022-11-11T01:06:28;4.40;99.90
1461;DHT22;724;49.910;12.530;2022-11-11T01:08:55;4.40;99.90
1461;DHT22;724;49.910;12.530;2022-11-11T01:11:22;4.30;99.90
1461;DHT22;724;49.910;12.530;2022-11-11T01:13:50;4.40;99.90
1461;DHT22;724;49.910;12.530;2022-11-11T01:16:20;4.40;99.90
1461;DHT22;724;49.910;12.530;2022-11-11T01:18:47;4.50;99.90
1461;DHT22;724;49.910;12.530;2022-11-11T01:21:16;4.50;99.90
1461;DHT22;724;49.910;12.530;2022-11-11T01:23:44;4.60;99.90
1461;DHT22;724;49.910;12.530;2022-11-11T01:26:13;4.60;99.90
1461;DHT22;724;49.910;12.530;2022-11-11T01:28:41;4.70;99.90
1461;DHT22;724;49.910;12.530;2022-11-11T01:31:11;4.70;99.90
1461;DHT22;724;49.910;12.530;2022-11-11T01:33:39;4.60;99.90
1461;DHT22;724;49.910;12.530;2022-11-11T01:36:09;4.50;99.90
1461;DHT22;724;49.910;12.530;2022-11-11T01:38:36;4.50;99.90
1461;DHT22;724;49.910;12.530;2022-11-11T01:41:04;4.60;99.90
1461;DHT22;724;49.910;12.530;2022-11-11T01:43:45;4.60;99.90
1461;DHT22;724;49.910;12.530;2022-11-11T01:46:19;4.60;99.90
1461;DHT22;724;49.910;12.530;2022-11-11T01:48:50;4.60;99.90
1461;DHT22;724;49.910;12.530;2022-11-11T01:51:37;4.70;99.90
1461;DHT22;724;49.910;12.530;2022-11-11T01:54:08;4.70;99.90
1461;DHT22;724;49.910;12.530;2022-11-11T01:56:37;4.70;99.90
1461;DHT22;724;49.910;12.530;2022-11-11T01:59:08;4.70;99.90
1461;DHT22;724;49.910;12.530;2022-11-11T02:01:36;4.70;99.90
1461;DHT22;724;49.910;12.530;2022-11-11T02:04:05;4.80;99.90
1461;DHT22;724;49.910;12.530;2022-11-11T02:06:52;4.80;99.90
1461;DHT22;724;49.910;12.530;2022-11-11T02:09:19;4.80;99.90
1461;DHT22;724;49.910;12.530;2022-11-11T02:11:47;4.70;99.90
1461;DHT22;724;49.910;12.530;2022-11-11T02:14:34;4.70;99.90
1461;DHT22;724;49.910;12.530;2022-11-11T02:17:08;4.60;99.90
1461;DHT22;724;49.910;12.530;2022-11-11T02:19:44;4.50;99.90
1461;DHT22;724;49.910;12.530;2022-11-11T02:22:17;4.50;99.90
1461;DHT22;724;49.910;12.530;2022-11-11T02:24:48;4.50;99.90
1461;DHT22;724;49.910;12.530;2022-11-11T02:27:16;4.50;99.90
1461;DHT22;724;49.910;12.530;2022-11-11T02:29:46;4.50;99.90
1461;DHT22;724;49.910;12.530;2022-11-11T02:32:17;4.40;99.90
1461;DHT22;724;49.910;12.530;2022-11-11T02:34:44;4.40;99.90
1461;DHT22;724;49.910;12.530;2022-11-11T02:37:11;4.30;99.90
1461;DHT22;724;49.910;12.530;2022-11-11T02:39:43;4.30;99.90
1461;DHT22;724;49.910;12.530;2022-11-11T02:42:13;4.30;99.90
1461;DHT22;724;49.910;12.530;2022-11-11T02:44:41;4.30;99.90
1461;DHT22;724;49.910;12.530;2022-11-11T02:47:08;4.30;99.90
1461;DHT22;724;49.910;12.530;2022-11-11T02:49:34;4.30;99.90
1461;DHT22;724;49.910;12.530;2022-11-11T02:52:01;4.40;99.90
1461;DHT22;724;49.910;12.530;2022-11-11T02:54:28;4.40;99.90
1461;DHT22;724;49.910;12.530;2022-11-11T02:56:55;4.30;99.90
1461;DHT22;724;49.910;12.530;2022-11-11T02:59:36;4.30;99.90
1461;DHT22;724;49.910;12.530;2022-11-11T03:02:03;4.40;99.90
1461;DHT22;724;49.910;12.530;2022-11-11T03:04:31;4.40;99.90
1461;DHT22;724;49.910;12.530;2022-11-11T03:06:57;4.40;99.90
1461;DHT22;724;49.910;12.530;2022-11-11T03:09:24;4.40;99.90
1461;DHT22;724;49.910;12.530;2022-11-11T03:11:51;4.30;99.90
1461;DHT22;724;49.910;12.530;2022-11-11T03:14:18;4.30;99.90
1461;DHT22;724;49.910;12.530;2022-11-11T03:16:47;4.40;99.90
1461;DHT22;724;49.910;12.530;2022-11-11T03:19:31;4.40;99.90
1461;DHT22;724;49.910;12.530;2022-11-11T03:21:58;4.50;99.90
1461;DHT22;724;49.910;12.530;2022-11-11T03:24:24;4.60;99.90
1461;DHT22;724;49.910;12.530;2022-11-11T03:27:11;4.70;99.90
1461;DHT22;724;49.910;12.530;2022-11-11T03:29:37;4.70;99.90
1461;DHT22;724;49.910;12.530;2022-11-11T03:32:06;4.70;99.90
1461;DHT22;724;49.910;12.530;2022-11-11T03:34:33;4.70;99.90
1461;DHT22;724;49.910;12.530;2022-11-11T03:37:00;4.80;99.90
1461;DHT22;724;49.910;12.530;2022-11-11T03:39:46;4.90;99.90
1461;DHT22;724;49.910;12.530;2022-11-11T03:42:13;4.90;99.90
1461;DHT22;724;49.910;12.530;2022-11-11T03:44:40;4.90;99.90
1461;DHT22;724;49.910;12.530;2022-11-11T03:47:08;4.90;99.90
1461;DHT22;724;49.910;12.530;2022-11-11T03:49:35;4.90;99.90
1461;DHT22;724;49.910;12.530;2022-11-11T03:52:01;4.90;99.90
1461;DHT22;724;49.910;12.530;2022-11-11T03:54:28;4.90;99.90
1461;DHT22;724;49.910;12.530;2022-11-11T03:56:55;4.90;99.90
1461;DHT22;724;49.910;12.530;2022-11-11T03:59:42;5.00;99.90
1461;DHT22;724;49.910;12.530;2022-11-11T04:02:12;5.00;99.90
1461;DHT22;724;49.910;12.530;2022-11-11T04:04:57;4.90;99.90
1461;DHT22;724;49.910;12.530;2022-11-11T04:07:41;4.90;99.90
1461;DHT22;724;49.910;12.530;2022-11-11T04:10:27;4.90;99.90
1461;DHT22;724;49.910;12.530;2022-11-11T04:12:56;4.90;99.90
1461;DHT22;724;49.910;12.530;2022-11-11T04:15:49;4.90;99.90
1461;DHT22;724;49.910;12.530;2022-11-11T04:18:32;4.90;99.90
1461;DHT22;724;49.910;12.530;2022-11-11T04:21:17;4.80;99.90
1461;DHT22;724;49.910;12.530;2022-11-11T04:23:58;4.80;99.90
1461;DHT22;724;49.910;12.530;2022-11-11T04:26:24;4.70;99.90
1461;DHT22;724;49.910;12.530;2022-11-11T04:28:50;4.70;99.90
1461;DHT22;724;49.910;12.530;2022-11-11T04:31:34;4.70;99.90
1461;DHT22;724;49.910;12.530;2022-11-11T04:34:03;4.70;99.90
1461;DHT22;724;49.910;12.530;2022-11-11T04:36:28;4.70;99.90
1461;DHT22;724;49.910;12.530;2022-11-11T04:38:55;4.60;99.90
1461;DHT22;724;49.910;12.530;2022-11-11T04:41:39;4.60;99.90
1461;DHT22;724;49.910;12.530;2022-11-11T04:44:06;4.60;99.90
1461;DHT22;724;49.910;12.530;2022-11-11T04:46:50;4.50;99.90
1461;DHT22;724;49.910;12.530;2022-11-11T04:49:18;4.50;99.90
1461;DHT22;724;49.910;12.530;2022-11-11T04:51:45;4.50;99.90
1461;DHT22;724;49.910;12.530;2022-11-11T04:54:29;4.40;99.90
1461;DHT22;724;49.910;12.530;2022-11-11T04:57:16;4.40;99.90
1461;DHT22;724;49.910;12.530;2022-11-11T04:59:42;4.30;99.90
1461;DHT22;724;49.910;12.530;2022-11-11T05:02:08;4.30;99.90
1461;DHT22;724;49.910;12.530;2022-11-11T05:04:54;4.20;99.90
1461;DHT22;724;49.910;12.530;2022-11-11T05:07:21;4.30;99.90
1461;DHT22;724;49.910;12.530;2022-11-11T05:10:06;4.20;99.90
1461;DHT22;724;49.910;12.530;2022-11-11T05:12:33;4.20;99.90
1461;DHT22;724;49.910;12.530;2022-11-11T05:15:00;4.20;99.90
1461;DHT22;724;49.910;12.530;2022-11-11T05:17:44;4.10;99.90
1461;DHT22;724;49.910;12.530;2022-11-11T05:20:35;4.10;99.90
1461;DHT22;724;49.910;12.530;2022-11-11T05:23:20;4.10;99.90
1461;DHT22;724;49.910;12.530;2022-11-11T05:26:07;4.00;99.90
1461;DHT22;724;49.910;12.530;2022-11-11T05:28:33;3.80;99.90
1461;DHT22;724;49.910;12.530;2022-11-11T05:31:00;3.80;99.90
1461;DHT22;724;49.910;12.530;2022-11-11T05:33:26;3.80;99.90
1461;DHT22;724;49.910;12.530;2022-11-11T05:35:54;3.80;99.90
1461;DHT22;724;49.910;12.530;2022-11-11T05:38:21;3.80;99.90
1461;DHT22;724;49.910;12.530;2022-11-11T05:40:48;3.90;99.90
1461;DHT22;724;49.910;12.530;2022-11-11T05:43:15;4.00;99.90
1461;DHT22;724;49.910;12.530;2022-11-11T05:45:41;4.20;99.90
1461;DHT22;724;49.910;12.530;2022-11-11T05:48:08;4.30;99.90
1461;DHT22;724;49.910;12.530;2022-11-11T05:50:35;4.50;99.90
1461;DHT22;724;49.910;12.530;2022-11-11T05:53:07;4.60;99.90
1461;DHT22;724;49.910;12.530;2022-11-11T05:55:33;4.60;99.90
1461;DHT22;724;49.910;12.530;2022-11-11T05:58:00;4.70;99.90
1461;DHT22;724;49.910;12.530;2022-11-11T06:00:27;4.80;99.90
1461;DHT22;724;49.910;12.530;2022-11-11T06:02:54;5.00;99.90
1461;DHT22;724;49.910;12.530;2022-11-11T06:05:20;4.90;99.90
1461;DHT22;724;49.910;12.530;2022-11-11T06:07:47;4.90;99.90
1461;DHT22;724;49.910;12.530;2022-11-11T06:10:20;5.00;99.90
1461;DHT22;724;49.910;12.530;2022-11-11T06:12:56;5.00;99.90
1461;DHT22;724;49.910;12.530;2022-11-11T06:15:32;5.10;99.90
1461;DHT22;724;49.910;12.530;2022-11-11T06:17:59;5.20;99.90
1461;DHT22;724;49.910;12.530;2022-11-11T06:20:26;5.30;99.90
1461;DHT22;724;49.910;12.530;2022-11-11T06:22:54;5.40;99.90
1461;DHT22;724;49.910;12.530;2022-11-11T06:25:29;5.60;99.90
1461;DHT22;724;49.910;12.530;2022-11-11T06:28:14;5.50;99.90
1461;DHT22;724;49.910;12.530;2022-11-11T06:30:41;5.50;99.90
1461;DHT22;724;49.910;12.530;2022-11-11T06:33:08;5.60;99.90
1461;DHT22;724;49.910;12.530;2022-11-11T06:35:35;5.60;99.90
1461;DHT22;724;49.910;12.530;2022-11-11T06:38:03;5.60;99.90
1461;DHT22;724;49.910;12.530;2022-11-11T06:40:32;5.70;99.90
1461;DHT22;724;49.910;12.530;2022-11-11T06:42:59;5.70;99.90
1461;DHT22;724;49.910;12.530;2022-11-11T06:45:27;5.80;99.90
1461;DHT22;724;49.910;12.530;2022-11-11T06:47:55;5.90;99.90
1461;DHT22;724;49.910;12.530;2022-11-11T06:50:21;5.90;99.90
1461;DHT22;724;49.910;12.530;2022-11-11T06:52:48;6.00;99.90
1461;DHT22;724;49.910;12.530;2022-11-11T06:55:15;6.00;99.90
1461;DHT22;724;49.910;12.530;2022-11-11T06:57:43;6.00;99.90
1461;DHT22;724;49.910;12.530;2022-11-11T07:00:11;6.10;99.90
1461;DHT22;724;49.910;12.530;2022-11-11T07:02:38;6.20;99.90
1461;DHT22;724;49.910;12.530;2022-11-11T07:05:05;6.40;99.90
1461;DHT22;724;49.910;12.530;2022-11-11T07:07:33;6.60;99.90
1461;DHT22;724;49.910;12.530;2022-11-11T07:10:00;6.70;99.90
1461;DHT22;724;49.910;12.530;2022-11-11T07:12:28;7.20;99.90
1461;DHT22;724;49.910;12.530;2022-11-11T07:14:57;7.80;1.00
1461;DHT22;724;49.910;12.530;2022-11-11T07:17:23;8.50;97.70
1461;DHT22;724;49.910;12.530;2022-11-11T07:19:50;9.30;1.00
1461;DHT22;724;49.910;12.530;2022-11-11T07:22:17;8.90;94.90
1461;DHT22;724;49.910;12.530;2022-11-11T07:24:44;10.30;1.00
1461;DHT22;724;49.910;12.530;2022-11-11T07:27:11;12.10;99.90
1461;DHT22;724;49.910;12.530;2022-11-11T07:29:37;13.50;1.00
1461;DHT22;724;49.910;12.530;2022-11-11T07:32:05;13.90;99.90
1461;DHT22;724;49.910;12.530;2022-11-11T07:34:33;13.80;99.90
1461;DHT22;724;49.910;12.530;2022-11-11T07:37:00;12.70;99.90
1461;DHT22;724;49.910;12.530;2022-11-11T07:39:27;11.10;99.90
1461;DHT22;724;49.910;12.530;2022-11-11T07:41:54;10.20;99.90
1461;DHT22;724;49.910;12.530;2022-11-11T07:44:20;10.20;1.00
1461;DHT22;724;49.910;12.530;2022-11-11T07:46:47;10.10;1.00
1461;DHT22;724;49.910;12.530;2022-11-11T07:49:15;9.90;99.90
1461;DHT22;724;49.910;12.530;2022-11-11T07:51:42;10.20;99.90
1461;DHT22;724;49.910;12.530;2022-11-11T07:54:09;10.70;99.90
1461;DHT22;724;49.910;12.530;2022-11-11T07:56:35;11.80;99.90
1461;DHT22;724;49.910;12.530;2022-11-11T07:59:02;13.10;1.00
1461;DHT22;724;49.910;12.530;2022-11-11T08:01:29;15.00;1.00
1461;DHT22;724;49.910;12.530;2022-11-11T08:03:55;16.50;1.00
1461;DHT22;724;49.910;12.530;2022-11-11T08:06:24;16.90;1.00
1461;DHT22;724;49.910;12.530;2022-11-11T08:08:50;16.60;1.00
1461;DHT22;724;49.910;12.530;2022-11-11T08:11:17;16.70;1.00
1461;DHT22;724;49.910;12.530;2022-11-11T08:14:04;17.50;1.00
1461;DHT22;724;49.910;12.530;2022-11-11T08:16:29;17.10;1.00
1461;DHT22;724;49.910;12.530;2022-11-11T08:18:56;18.60;1.00
1461;DHT22;724;49.910;12.530;2022-11-11T08:21:25;16.30;99.90
1461;DHT22;724;49.910;12.530;2022-11-11T08:23:52;16.60;99.90
1461;DHT22;724;49.910;12.530;2022-11-11T08:26:20;15.00;99.90
1461;DHT22;724;49.910;12.530;2022-11-11T08:28:47;14.90;1.00
1461;DHT22;724;49.910;12.530;2022-11-11T08:31:14;14.00;1.00
1461;DHT22;724;49.910;12.530;2022-11-11T08:33:41;12.80;1.00
1461;DHT22;724;49.910;12.530;2022-11-11T08:36:08;13.40;1.00
1461;DHT22;724;49.910;12.530;2022-11-11T08:38:37;13.10;1.00
1461;DHT22;724;49.910;12.530;2022-11-11T08:41:05;14.50;1.00
1461;DHT22;724;49.910;12.530;2022-11-11T08:43:33;14.70;1.00
1461;DHT22;724;49.910;12.530;2022-11-11T08:46:00;14.60;1.00
1461;DHT22;724;49.910;12.530;2022-11-11T08:48:28;15.80;99.90
1461;DHT22;724;49.910;12.530;2022-11-11T08:50:56;16.40;99.90
1461;DHT22;724;49.910;12.530;2022-11-11T08:53:26;16.40;99.90
1461;DHT22;724;49.910;12.530;2022-11-11T08:55:54;15.80;99.90
1461;DHT22;724;49.910;12.530;2022-11-11T08:58:21;16.10;99.90
1461;DHT22;724;49.910;12.530;2022-11-11T09:00:48;15.10;99.90
1461;DHT22;724;49.910;12.530;2022-11-11T09:03:14;16.20;99.90
1461;DHT22;724;49.910;12.530;2022-11-11T09:05:41;16.50;99.90
1461;DHT22;724;49.910;12.530;2022-11-11T09:08:08;15.90;99.90
1461;DHT22;724;49.910;12.530;2022-11-11T09:10:36;15.60;99.90
1461;DHT22;724;49.910;12.530;2022-11-11T09:13:04;16.00;99.90
1461;DHT22;724;49.910;12.530;2022-11-11T09:15:32;14.80;99.90
1461;DHT22;724;49.910;12.530;2022-11-11T09:17:59;14.60;99.90
1461;DHT22;724;49.910;12.530;2022-11-11T09:20:26;14.30;99.90
1461;DHT22;724;49.910;12.530;2022-11-11T09:22:53;14.20;99.90
1461;DHT22;724;49.910;12.530;2022-11-11T09:25:21;13.70;99.90
1461;DHT22;724;49.910;12.530;2022-11-11T09:27:55;13.40;99.90
1461;DHT22;724;49.910;12.530;2022-11-11T09:30:23;13.90;99.90
1461;DHT22;724;49.910;12.530;2022-11-11T09:32:50;14.30;99.90
1461;DHT22;724;49.910;12.530;2022-11-11T09:35:17;13.40;99.90
1461;DHT22;724;49.910;12.530;2022-11-11T09:37:52;12.80;99.90
1461;DHT22;724;49.910;12.530;2022-11-11T09:40:21;12.80;99.90
1461;DHT22;724;49.910;12.530;2022-11-11T09:42:58;12.50;99.90
1461;DHT22;724;49.910;12.530;2022-11-11T09:45:36;12.80;1.00
1461;DHT22;724;49.910;12.530;2022-11-11T09:48:22;13.90;99.90
1461;DHT22;724;49.910;12.530;2022-11-11T09:50:54;15.20;99.90
1461;DHT22;724;49.910;12.530;2022-11-11T09:53:27;16.00;99.90
1461;DHT22;724;49.910;12.530;2022-11-11T09:55:59;18.60;99.90
1461;DHT22;724;49.910;12.530;2022-11-11T09:58:31;19.30;99.90
1461;DHT22;724;49.910;12.530;2022-11-11T10:01:06;21.30;99.90
1461;DHT22;724;49.910;12.530;2022-11-11T10:03:39;22.80;99.90
1461;DHT22;724;49.910;12.530;2022-11-11T10:06:16;24.40;99.90
1461;DHT22;724;49.910;12.530;2022-11-11T10:08:48;25.40;38.20
1461;DHT22;724;49.910;12.530;2022-11-11T10:11:21;24.00;1.00
1461;DHT22;724;49.910;12.530;2022-11-11T10:13:53;24.40;1.00
1461;DHT22;724;49.910;12.530;2022-11-11T10:16:26;24.60;1.00
1461;DHT22;724;49.910;12.530;2022-11-11T10:19:09;23.70;1.00
1461;DHT22;724;49.910;12.530;2022-11-11T10:21:43;22.90;1.00
1461;DHT22;724;49.910;12.530;2022-11-11T10:24:15;23.80;1.00
1461;DHT22;724;49.910;12.530;2022-11-11T10:26:45;24.40;1.00
1461;DHT22;724;49.910;12.530;2022-11-11T10:29:14;22.30;1.00
1461;DHT22;724;49.910;12.530;2022-11-11T10:31:44;22.90;1.00
1461;DHT22;724;49.910;12.530;2022-11-11T10:34:15;21.30;1.00
1461;DHT22;724;49.910;12.530;2022-11-11T10:36:45;23.10;1.00
1461;DHT22;724;49.910;12.530;2022-11-11T10:39:15;22.60;1.00
1461;DHT22;724;49.910;12.530;2022-11-11T10:41:46;19.00;1.00
1461;DHT22;724;49.910;12.530;2022-11-11T10:44:21;19.90;1.00
1461;DHT22;724;49.910;12.530;2022-11-11T10:46:59;17.80;1.00
1461;DHT22;724;49.910;12.530;2022-11-11T10:49:31;16.30;1.00
1461;DHT22;724;49.910;12.530;2022-11-11T10:52:03;16.20;1.00
1461;DHT22;724;49.910;12.530;2022-11-11T10:54:36;15.10;1.00
1461;DHT22;724;49.910;12.530;2022-11-11T10:57:10;14.30;1.00
1461;DHT22;724;49.910;12.530;2022-11-11T10:59:42;14.10;1.00
1461;DHT22;724;49.910;12.530;2022-11-11T11:02:18;13.50;1.00
1461;DHT22;724;49.910;12.530;2022-11-11T11:04:49;12.90;51.30
1461;DHT22;724;49.910;12.530;2022-11-11T11:07:21;12.90;99.40
1461;DHT22;724;49.910;12.530;2022-11-11T11:09:53;12.30;99.90
1461;DHT22;724;49.910;12.530;2022-11-11T11:12:26;11.60;99.90
1461;DHT22;724;49.910;12.530;2022-11-11T11:14:59;12.00;99.90
1461;DHT22;724;49.910;12.530;2022-11-11T11:17:35;12.10;99.90
1461;DHT22;724;49.910;12.530;2022-11-11T11:20:10;12.00;99.90
1461;DHT22;724;49.910;12.530;2022-11-11T11:22:48;12.00;99.90
1461;DHT22;724;49.910;12.530;2022-11-11T11:25:16;12.10;99.90
1461;DHT22;724;49.910;12.530;2022-11-11T11:27:44;12.10;99.90
1461;DHT22;724;49.910;12.530;2022-11-11T11:30:14;11.80;99.90
1461;DHT22;724;49.910;12.530;2022-11-11T11:32:55;12.10;99.90
1461;DHT22;724;49.910;12.530;2022-11-11T11:35:31;12.20;99.90
1461;DHT22;724;49.910;12.530;2022-11-11T11:37:58;12.20;99.90
1461;DHT22;724;49.910;12.530;2022-11-11T11:40:25;12.30;99.90
1461;DHT22;724;49.910;12.530;2022-11-11T11:42:53;12.30;99.90
1461;DHT22;724;49.910;12.530;2022-11-11T11:45:22;13.30;99.90
1461;DHT22;724;49.910;12.530;2022-11-11T11:48:05;14.20;99.90
1461;DHT22;724;49.910;12.530;2022-11-11T11:50:45;14.70;99.90
1461;DHT22;724;49.910;12.530;2022-11-11T11:53:33;15.00;99.90
1461;DHT22;724;49.910;12.530;2022-11-11T11:56:09;15.20;99.90
1461;DHT22;724;49.910;12.530;2022-11-11T11:58:46;15.10;99.90
1461;DHT22;724;49.910;12.530;2022-11-11T12:01:20;14.00;99.90
1461;DHT22;724;49.910;12.530;2022-11-11T12:04:04;13.00;99.90
1461;DHT22;724;49.910;12.530;2022-11-11T12:06:41;12.80;99.90
1461;DHT22;724;49.910;12.530;2022-11-11T12:09:20;12.70;99.90
1461;DHT22;724;49.910;12.530;2022-11-11T12:11:57;13.20;99.90
1461;DHT22;724;49.910;12.530;2022-11-11T12:14:43;12.60;99.90
1461;DHT22;724;49.910;12.530;2022-11-11T12:17:18;12.00;99.90
1461;DHT22;724;49.910;12.530;2022-11-11T12:19:59;11.90;99.90
1461;DHT22;724;49.910;12.530;2022-11-11T12:22:38;11.80;99.90
1461;DHT22;724;49.910;12.530;2022-11-11T12:25:12;11.50;99.90
1461;DHT22;724;49.910;12.530;2022-11-11T12:27:51;11.60;99.90
1461;DHT22;724;49.910;12.530;2022-11-11T12:30:21;11.40;99.90
1461;DHT22;724;49.910;12.530;2022-11-11T12:33:28;11.90;99.90
1461;DHT22;724;49.910;12.530;2022-11-11T12:36:07;11.90;99.90
1461;DHT22;724;49.910;12.530;2022-11-11T12:38:47;11.60;1.00
1461;DHT22;724;49.910;12.530;2022-11-11T12:41:23;11.60;1.00
1461;DHT22;724;49.910;12.530;2022-11-11T12:43:56;11.60;1.00
1461;DHT22;724;49.910;12.530;2022-11-11T12:46:32;11.90;1.00
1461;DHT22;724;49.910;12.530;2022-11-11T12:49:13;11.90;1.00
1461;DHT22;724;49.910;12.530;2022-11-11T12:51:54;11.70;1.00
1461;DHT22;724;49.910;12.530;2022-11-11T12:54:28;11.40;1.00
1461;DHT22;724;49.910;12.530;2022-11-11T12:57:01;11.30;1.00
1461;DHT22;724;49.910;12.530;2022-11-11T12:59:43;11.30;1.00
1461;DHT22;724;49.910;12.530;2022-11-11T13:02:32;11.30;1.00
1461;DHT22;724;49.910;12.530;2022-11-11T13:05:09;11.40;1.00
1461;DHT22;724;49.910;12.530;2022-11-11T13:10:44;11.40;1.00
1461;DHT22;724;49.910;12.530;2022-11-11T13:13:34;11.20;1.00
1461;DHT22;724;49.910;12.530;2022-11-11T13:16:07;11.20;1.00
1461;DHT22;724;49.910;12.530;2022-11-11T13:18:42;11.30;1.00
1461;DHT22;724;49.910;12.530;2022-11-11T13:21:13;11.00;1.00
1461;DHT22;724;49.910;12.530;2022-11-11T13:23:42;11.10;1.00
1461;DHT22;724;49.910;12.530;2022-11-11T13:26:23;11.30;1.00
1461;DHT22;724;49.910;12.530;2022-11-11T13:28:57;10.90;1.00
1461;DHT22;724;49.910;12.530;2022-11-11T13:31:31;10.80;1.00
1461;DHT22;724;49.910;12.530;2022-11-11T13:34:04;10.50;1.00
1461;DHT22;724;49.910;12.530;2022-11-11T13:36:40;10.50;1.00
1461;DHT22;724;49.910;12.530;2022-11-11T13:39:24;10.40;1.00
1461;DHT22;724;49.910;12.530;2022-11-11T13:41:54;10.20;1.00
1461;DHT22;724;49.910;12.530;2022-11-11T13:44:24;10.50;1.00
1461;DHT22;724;49.910;12.530;2022-11-11T13:46:59;10.60;1.00
1461;DHT22;724;49.910;12.530;2022-11-11T13:49:30;10.50;1.00
1461;DHT22;724;49.910;12.530;2022-11-11T13:51:59;10.80;1.00
1461;DHT22;724;49.910;12.530;2022-11-11T13:54:30;11.10;1.00
1461;DHT22;724;49.910;12.530;2022-11-11T13:57:04;11.30;1.00
1461;DHT22;724;49.910;12.530;2022-11-11T13:59:34;11.20;1.00
1461;DHT22;724;49.910;12.530;2022-11-11T14:02:25;10.90;1.00
1461;DHT22;724;49.910;12.530;2022-11-11T14:05:14;11.10;1.00
1461;DHT22;724;49.910;12.530;2022-11-11T14:07:50;10.90;1.00
1461;DHT22;724;49.910;12.530;2022-11-11T14:13:41;10.70;1.00
1461;DHT22;724;49.910;12.530;2022-11-11T14:16:12;10.70;1.00
1461;DHT22;724;49.910;12.530;2022-11-11T14:18:59;10.80;1.00
1461;DHT22;724;49.910;12.530;2022-11-11T14:21:43;10.60;1.00
1461;DHT22;724;49.910;12.530;2022-11-11T14:24:21;10.50;1.00
1461;DHT22;724;49.910;12.530;2022-11-11T14:26:57;10.40;1.00
1461;DHT22;724;49.910;12.530;2022-11-11T14:29:29;10.40;1.00
1461;DHT22;724;49.910;12.530;2022-11-11T14:35:18;10.20;1.00
1461;DHT22;724;49.910;12.530;2022-11-11T14:38:03;10.30;1.00
1461;DHT22;724;49.910;12.530;2022-11-11T14:40:32;9.80;1.00
1461;DHT22;724;49.910;12.530;2022-11-11T14:43:00;10.00;1.00
1461;DHT22;724;49.910;12.530;2022-11-11T14:45:52;10.10;1.00
1461;DHT22;724;49.910;12.530;2022-11-11T14:48:57;10.00;1.00
1461;DHT22;724;49.910;12.530;2022-11-11T14:51:46;10.00;1.00
1461;DHT22;724;49.910;12.530;2022-11-11T14:54:42;9.90;1.00
1461;DHT22;724;49.910;12.530;2022-11-11T14:57:19;9.80;16.70
1461;DHT22;724;49.910;12.530;2022-11-11T14:59:47;9.80;34.20
1461;DHT22;724;49.910;12.530;2022-11-11T15:02:26;9.70;79.50
1461;DHT22;724;49.910;12.530;2022-11-11T15:04:57;9.70;99.90
1461;DHT22;724;49.910;12.530;2022-11-11T15:07:30;9.50;99.90
1461;DHT22;724;49.910;12.530;2022-11-11T15:10:11;9.50;99.90
1461;DHT22;724;49.910;12.530;2022-11-11T15:12:54;9.40;99.90
1461;DHT22;724;49.910;12.530;2022-11-11T15:15:25;9.40;99.90
1461;DHT22;724;49.910;12.530;2022-11-11T15:18:01;9.20;99.90
1461;DHT22;724;49.910;12.530;2022-11-11T15:20:53;9.20;99.90
1461;DHT22;724;49.910;12.530;2022-11-11T15:23:27;9.10;99.90
1461;DHT22;724;49.910;12.530;2022-11-11T15:26:00;9.00;1.00
1461;DHT22;724;49.910;12.530;2022-11-11T15:28:41;8.90;1.00
1461;DHT22;724;49.910;12.530;2022-11-11T15:31:17;8.80;1.00
1461;DHT22;724;49.910;12.530;2022-11-11T15:33:55;8.80;1.00
1461;DHT22;724;49.910;12.530;2022-11-11T15:36:35;8.70;1.00
1461;DHT22;724;49.910;12.530;2022-11-11T15:39:06;8.60;1.00
1461;DHT22;724;49.910;12.530;2022-11-11T15:41:38;8.50;1.00
1461;DHT22;724;49.910;12.530;2022-11-11T15:44:09;8.50;1.00
1461;DHT22;724;49.910;12.530;2022-11-11T15:46:41;8.60;1.00
1461;DHT22;724;49.910;12.530;2022-11-11T15:49:12;8.50;1.00
1461;DHT22;724;49.910;12.530;2022-11-11T15:51:40;8.50;1.00
1461;DHT22;724;49.910;12.530;2022-11-11T15:54:17;8.50;1.00
1461;DHT22;724;49.910;12.530;2022-11-11T15:56:44;8.30;1.00
1461;DHT22;724;49.910;12.530;2022-11-11T15:59:15;8.30;1.00
1461;DHT22;724;49.910;12.530;2022-11-11T16:01:42;8.40;48.20
1461;DHT22;724;49.910;12.530;2022-11-11T16:04:13;8.40;83.90
1461;DHT22;724;49.910;12.530;2022-11-11T16:06:42;8.40;98.70
1461;DHT22;724;49.910;12.530;2022-11-11T16:09:12;8.40;74.30
1461;DHT22;724;49.910;12.530;2022-11-11T16:11:40;8.40;99.90
1461;DHT22;724;49.910;12.530;2022-11-11T16:14:18;8.40;99.90
1461;DHT22;724;49.910;12.530;2022-11-11T16:16:46;8.40;99.90
1461;DHT22;724;49.910;12.530;2022-11-11T16:19:23;8.40;99.90
1461;DHT22;724;49.910;12.530;2022-11-11T16:21:56;8.30;99.90
1461;DHT22;724;49.910;12.530;2022-11-11T16:24:27;8.40;99.90
1461;DHT22;724;49.910;12.530;2022-11-11T16:26:56;8.30;99.90
1461;DHT22;724;49.910;12.530;2022-11-11T16:29:29;8.20;99.90
1461;DHT22;724;49.910;12.530;2022-11-11T16:31:58;8.20;99.90
1461;DHT22;724;49.910;12.530;2022-11-11T16:34:41;8.10;99.90
1461;DHT22;724;49.910;12.530;2022-11-11T16:37:10;8.10;99.90
1461;DHT22;724;49.910;12.530;2022-11-11T16:39:38;8.00;1.00
1461;DHT22;724;49.910;12.530;2022-11-11T16:42:15;8.00;1.00
1461;DHT22;724;49.910;12.530;2022-11-11T16:44:47;8.10;1.00
1461;DHT22;724;49.910;12.530;2022-11-11T16:47:40;8.00;1.00
1461;DHT22;724;49.910;12.530;2022-11-11T16:50:11;8.10;1.00
1461;DHT22;724;49.910;12.530;2022-11-11T16:52:41;8.10;99.90
1461;DHT22;724;49.910;12.530;2022-11-11T16:55:10;7.90;99.90
1461;DHT22;724;49.910;12.530;2022-11-11T16:57:41;7.90;1.00